createdAt,value
2022-09-14T00:01:26.870Z,4.55
2022-09-14T00:03:56.813Z,3.75
2022-09-14T00:06:26.368Z,4.95
2022-09-14T00:08:55.543Z,5.97
2022-09-14T00:11:25.093Z,8.95
2022-09-14T00:13:54.039Z,6.07
2022-09-14T00:16:24.159Z,5.78
2022-09-14T00:18:53.347Z,5.45
2022-09-14T00:21:21.441Z,4.80
2022-09-14T00:23:50.866Z,4.65
2022-09-14T00:26:23.829Z,5.40
2022-09-14T00:28:53.386Z,6.68
2022-09-14T00:31:22.421Z,5.65
2022-09-14T00:33:51.611Z,4.95
2022-09-14T00:36:22.001Z,5.65
2022-09-14T00:38:51.581Z,6.68
2022-09-14T00:41:28.974Z,7.32
2022-09-14T00:43:59.429Z,7.38
2022-09-14T00:46:29.339Z,3.80
2022-09-14T00:49:00.936Z,4.47
2022-09-14T00:51:30.985Z,6.35
2022-09-14T00:54:02.696Z,5.15
2022-09-14T00:56:30.898Z,5.90
2022-09-14T00:59:00.706Z,10.52
2022-09-14T01:01:28.616Z,8.95
2022-09-14T01:03:56.279Z,4.05
2022-09-14T01:06:35.957Z,3.70
2022-09-14T01:09:19.089Z,8.10
2022-09-14T01:12:06.798Z,9.77
2022-09-14T01:14:43.634Z,6.05
2022-09-14T01:17:17.602Z,5.13
2022-09-14T01:20:10.949Z,9.40
2022-09-14T01:22:47.667Z,5.70
2022-09-14T01:25:38.838Z,5.47
2022-09-14T01:28:13.558Z,6.05
2022-09-14T01:30:43.712Z,6.43
2022-09-14T01:33:18.923Z,6.78
2022-09-14T01:35:53.329Z,4.90
2022-09-14T01:38:24.428Z,6.57
2022-09-14T01:40:52.473Z,5.88
2022-09-14T01:43:26.226Z,3.65
2022-09-14T01:45:57.077Z,6.40
2022-09-14T01:48:32.731Z,7.13
2022-09-14T01:51:04.339Z,7.78
2022-09-14T01:53:37.699Z,4.80
2022-09-14T01:56:11.974Z,5.28
2022-09-14T01:58:45.908Z,6.15
2022-09-14T02:01:19.177Z,6.60
2022-09-14T02:03:50.933Z,5.70
2022-09-14T02:06:24.893Z,5.95
2022-09-14T02:08:53.248Z,6.82
2022-09-14T02:11:21.087Z,6.00
2022-09-14T02:13:50.160Z,6.45
2022-09-14T02:16:18.019Z,4.65
2022-09-14T02:18:45.873Z,8.40
2022-09-14T02:21:16.959Z,5.07
2022-09-14T02:23:44.802Z,4.85
2022-09-14T02:26:12.814Z,8.07
2022-09-14T02:28:40.495Z,5.45
2022-09-14T02:31:18.676Z,5.43
2022-09-14T02:33:55.745Z,6.53
2022-09-14T02:36:29.675Z,6.65
2022-09-14T02:39:03.402Z,6.68
2022-09-14T02:41:42.040Z,6.50
2022-09-14T02:44:17.318Z,7.35
2022-09-14T02:46:51.624Z,7.60
2022-09-14T02:49:24.015Z,6.00
2022-09-14T02:54:31.829Z,4.65
2022-09-14T02:57:01.667Z,4.88
2022-09-14T02:59:29.816Z,6.85
2022-09-14T03:02:00.858Z,7.97
2022-09-14T03:04:29.036Z,7.03
2022-09-14T03:06:56.906Z,6.07
2022-09-14T03:09:24.554Z,7.18
2022-09-14T03:11:52.154Z,5.20
2022-09-14T03:14:19.735Z,8.77
2022-09-14T03:16:47.361Z,4.40
2022-09-14T03:19:16.558Z,15.63
2022-09-14T03:21:44.174Z,5.60
2022-09-14T03:24:12.137Z,5.07
2022-09-14T03:26:40.087Z,7.10
2022-09-14T03:29:07.926Z,6.55
2022-09-14T03:31:35.767Z,7.25
2022-09-14T03:34:03.917Z,5.78
2022-09-14T03:36:33.257Z,5.80
2022-09-14T03:39:02.703Z,5.90
2022-09-14T03:41:30.895Z,6.97
2022-09-14T03:43:58.533Z,6.90
2022-09-14T03:46:26.959Z,6.97
2022-09-14T03:48:55.838Z,6.95
2022-09-14T03:51:23.811Z,3.60
2022-09-14T03:53:53.104Z,6.68
2022-09-14T03:56:23.114Z,8.25
2022-09-14T03:58:51.346Z,6.90
2022-09-14T04:01:21.387Z,5.15
2022-09-14T04:03:50.254Z,6.70
2022-09-14T04:06:19.176Z,6.57
2022-09-14T04:08:48.355Z,6.07
2022-09-14T04:11:19.982Z,7.28
2022-09-14T04:13:48.531Z,4.47
2022-09-14T04:16:17.893Z,8.57
2022-09-14T04:18:45.789Z,8.95
2022-09-14T04:21:15.925Z,4.75
2022-09-14T04:24:03.451Z,7.63
2022-09-14T04:26:33.580Z,4.65
2022-09-14T04:29:01.218Z,6.50
2022-09-14T04:31:28.967Z,7.93
2022-09-14T04:33:57.635Z,5.72
2022-09-14T04:36:29.377Z,7.25
2022-09-14T04:38:58.609Z,7.05
2022-09-14T04:41:27.524Z,5.88
2022-09-14T04:43:57.719Z,4.95
2022-09-14T04:46:27.599Z,5.90
2022-09-14T04:48:55.492Z,4.63
2022-09-14T04:51:25.039Z,4.70
2022-09-14T04:53:55.069Z,8.32
2022-09-14T04:56:24.450Z,5.45
2022-09-14T04:58:54.012Z,5.97
2022-09-14T05:01:24.904Z,5.78
2022-09-14T05:03:53.231Z,5.88
2022-09-14T05:06:23.104Z,6.22
2022-09-14T05:08:52.079Z,9.07
2022-09-14T05:11:21.456Z,5.53
2022-09-14T05:13:50.410Z,7.18
2022-09-14T05:16:20.139Z,5.38
2022-09-14T05:18:50.258Z,6.18
2022-09-14T05:21:20.471Z,6.22
2022-09-14T05:23:49.359Z,8.00
2022-09-14T05:26:17.298Z,6.40
2022-09-14T05:28:44.912Z,10.20
2022-09-14T05:31:13.096Z,5.43
2022-09-14T05:33:40.948Z,6.30
2022-09-14T05:36:10.591Z,9.05
2022-09-14T05:38:40.174Z,7.82
2022-09-14T05:41:09.545Z,6.82
2022-09-14T05:43:37.216Z,8.52
2022-09-14T05:46:06.604Z,9.15
2022-09-14T05:48:35.015Z,9.68
2022-09-14T05:51:04.290Z,7.60
2022-09-14T05:53:33.333Z,7.45
2022-09-14T05:56:02.197Z,10.55
2022-09-14T05:58:30.154Z,8.38
2022-09-14T06:00:58.023Z,7.97
2022-09-14T06:03:26.104Z,7.32
2022-09-14T06:05:54.876Z,10.05
2022-09-14T06:08:23.429Z,5.35
2022-09-14T06:10:52.472Z,7.13
2022-09-14T06:13:20.118Z,7.93
2022-09-14T06:15:47.749Z,8.98
2022-09-14T06:18:15.434Z,11.90
2022-09-14T06:20:51.523Z,10.27
2022-09-14T06:23:19.562Z,9.02
2022-09-14T06:25:47.147Z,7.05
2022-09-14T06:28:16.163Z,6.68
2022-09-14T06:30:45.032Z,9.45
2022-09-14T06:33:12.697Z,6.80
2022-09-14T06:35:42.017Z,14.50
2022-09-14T06:38:09.987Z,8.82
2022-09-14T06:40:37.632Z,16.00
2022-09-14T06:43:05.236Z,10.13
2022-09-14T06:45:34.255Z,5.95
2022-09-14T06:48:02.102Z,9.55
2022-09-14T06:50:29.800Z,10.38
2022-09-14T06:52:57.435Z,10.13
2022-09-14T06:55:25.085Z,10.43
2022-09-14T06:57:52.756Z,7.18
2022-09-14T07:00:20.539Z,11.80
2022-09-14T07:02:52.463Z,6.70
2022-09-14T07:05:23.128Z,7.50
2022-09-14T07:07:53.360Z,4.93
2022-09-14T07:10:21.030Z,5.95
2022-09-14T07:12:48.718Z,10.23
2022-09-14T07:15:16.446Z,8.63
2022-09-14T07:17:47.147Z,7.07
2022-09-14T07:20:16.417Z,5.72
2022-09-14T07:22:45.099Z,9.93
2022-09-14T07:25:13.013Z,5.57
2022-09-14T07:27:40.690Z,8.02
2022-09-14T07:30:09.647Z,6.30
2022-09-14T07:32:37.281Z,8.52
2022-09-14T07:35:05.298Z,7.75
2022-09-14T07:37:34.368Z,8.27
2022-09-14T07:40:02.349Z,8.15
2022-09-14T07:42:30.049Z,7.85
2022-09-14T07:44:57.753Z,10.05
2022-09-14T07:47:25.577Z,7.43
2022-09-14T07:49:53.198Z,6.13
2022-09-14T07:52:23.225Z,4.78
2022-09-14T07:54:52.601Z,8.50
2022-09-14T07:57:33.964Z,9.40
2022-09-14T08:00:10.014Z,9.55
2022-09-14T08:02:37.729Z,8.45
2022-09-14T08:05:05.943Z,6.25
2022-09-14T08:07:33.805Z,8.65
2022-09-14T08:10:03.136Z,6.07
2022-09-14T08:12:31.116Z,4.95
2022-09-14T08:14:58.768Z,6.22
2022-09-14T08:17:26.523Z,8.57
2022-09-14T08:19:55.637Z,6.65
2022-09-14T08:22:23.307Z,9.00
2022-09-14T08:24:51.006Z,7.05
2022-09-14T08:27:20.034Z,5.65
2022-09-14T08:29:47.638Z,6.35
2022-09-14T08:32:15.267Z,6.18
2022-09-14T08:34:42.903Z,4.15
2022-09-14T08:37:10.971Z,6.07
2022-09-14T08:39:38.625Z,7.38
2022-09-14T08:42:07.032Z,8.30
2022-09-14T08:44:41.639Z,6.05
2022-09-14T08:47:13.654Z,8.43
2022-09-14T08:49:47.608Z,9.43
2022-09-14T08:52:23.270Z,6.20
2022-09-14T08:54:55.035Z,6.00
2022-09-14T08:57:29.606Z,4.72
2022-09-14T09:00:08.015Z,6.28
2022-09-14T09:02:51.010Z,6.32
2022-09-14T09:05:31.362Z,6.00
2022-09-14T09:08:06.193Z,6.35
2022-09-14T09:10:36.360Z,5.20
2022-09-14T09:13:06.678Z,4.57
2022-09-14T09:15:38.174Z,8.63
2022-09-14T09:18:09.793Z,7.40
2022-09-14T09:20:41.526Z,5.47
2022-09-14T09:23:14.269Z,3.70
2022-09-14T09:26:04.706Z,6.45
2022-09-14T09:28:33.645Z,7.10
2022-09-14T09:31:10.185Z,6.47
2022-09-14T09:33:40.482Z,6.15
2022-09-14T09:36:13.415Z,7.65
2022-09-14T09:38:41.444Z,4.45
2022-09-14T09:41:15.107Z,6.43
2022-09-14T09:43:59.879Z,4.88
2022-09-14T09:46:31.879Z,6.78
2022-09-14T09:49:00.370Z,6.65
2022-09-14T09:51:31.454Z,6.22
2022-09-14T09:54:08.627Z,6.50
2022-09-14T09:56:39.458Z,8.25
2022-09-14T09:59:23.345Z,5.45
2022-09-14T10:01:55.549Z,5.22
2022-09-14T10:04:27.870Z,5.90
2022-09-14T10:06:57.686Z,6.55
2022-09-14T10:09:28.161Z,7.35
2022-09-14T10:12:01.478Z,6.05
2022-09-14T10:14:32.233Z,6.32
2022-09-14T10:17:16.646Z,8.77
2022-09-14T10:19:48.761Z,6.65
2022-09-14T10:22:26.761Z,8.00
2022-09-14T10:24:57.507Z,8.48
2022-09-14T10:27:39.630Z,7.78
2022-09-14T10:30:13.247Z,5.60
2022-09-14T10:32:45.817Z,5.63
2022-09-14T10:35:15.309Z,6.38
2022-09-14T10:37:56.442Z,8.20
2022-09-14T10:40:31.721Z,6.72
2022-09-14T10:43:10.131Z,7.50
2022-09-14T10:45:42.331Z,4.32
2022-09-14T10:48:43.681Z,6.20
2022-09-14T10:51:36.120Z,5.38
2022-09-14T10:54:13.865Z,4.05
2022-09-14T10:56:57.038Z,6.80
2022-09-14T10:59:32.758Z,4.88
2022-09-14T11:02:37.892Z,4.93
2022-09-14T11:05:13.107Z,4.50
2022-09-14T11:07:53.444Z,5.40
2022-09-14T11:10:29.332Z,4.63
2022-09-14T11:13:19.408Z,4.95
2022-09-14T11:15:57.959Z,5.40
2022-09-14T11:18:34.564Z,4.82
2022-09-14T11:21:10.175Z,4.90
2022-09-14T11:23:48.920Z,6.18
2022-09-14T11:26:23.743Z,6.97
2022-09-14T11:28:55.078Z,8.15
2022-09-14T11:31:27.715Z,6.05
2022-09-14T11:34:00.077Z,9.27
2022-09-14T11:36:34.051Z,6.05
2022-09-14T11:39:07.210Z,7.18
2022-09-14T11:41:40.346Z,6.45
2022-09-14T11:44:14.411Z,5.47
2022-09-14T11:46:45.153Z,6.97
2022-09-14T11:49:19.732Z,5.95
2022-09-14T11:51:53.525Z,5.10
2022-09-14T11:54:23.542Z,5.10
2022-09-14T11:56:53.702Z,4.63
2022-09-14T11:59:48.361Z,6.75
2022-09-14T12:02:52.454Z,5.43
2022-09-14T12:05:33.163Z,5.88
2022-09-14T12:08:21.265Z,4.20
2022-09-14T12:11:28.593Z,4.63
2022-09-14T12:14:16.229Z,4.25
2022-09-14T12:17:39.909Z,3.92
2022-09-14T12:20:45.085Z,5.53
2022-09-14T12:23:24.648Z,7.25
2022-09-14T12:26:03.637Z,5.32
2022-09-14T12:28:43.463Z,7.85
2022-09-14T12:31:15.927Z,5.82
2022-09-14T12:34:15.857Z,5.07
2022-09-14T12:37:20.210Z,6.55
2022-09-14T12:40:27.843Z,5.07
2022-09-14T12:42:56.851Z,4.63
2022-09-14T12:45:51.249Z,5.22
2022-09-14T12:48:58.594Z,4.68
2022-09-14T12:51:37.691Z,6.65
2022-09-14T12:54:18.265Z,6.35
2022-09-14T12:56:56.372Z,7.30
2022-09-14T12:59:32.472Z,6.65
2022-09-14T13:02:14.836Z,5.93
2022-09-14T13:04:45.555Z,5.93
2022-09-14T13:07:15.912Z,7.15
2022-09-14T13:09:49.110Z,5.78
2022-09-14T13:12:24.842Z,4.22
2022-09-14T13:14:56.538Z,6.63
2022-09-14T13:17:24.199Z,5.07
2022-09-14T13:19:56.467Z,4.20
2022-09-14T13:22:26.009Z,4.90
2022-09-14T13:24:56.228Z,6.63
2022-09-14T13:27:27.021Z,4.22
2022-09-14T13:30:05.189Z,4.90
2022-09-14T13:32:35.835Z,4.20
2022-09-14T13:35:05.982Z,3.90
2022-09-14T13:37:33.720Z,5.03
2022-09-14T13:40:01.547Z,4.70
2022-09-14T13:42:29.395Z,5.18
2022-09-14T13:44:57.236Z,5.53
2022-09-14T13:47:26.934Z,6.32
2022-09-14T13:49:55.870Z,4.68
2022-09-14T13:52:57.463Z,6.22
2022-09-14T13:55:27.646Z,7.60
2022-09-14T13:58:17.245Z,4.57
2022-09-14T14:00:58.002Z,6.47
2022-09-14T14:03:30.749Z,6.60
2022-09-14T14:05:59.209Z,5.70
2022-09-14T14:08:34.118Z,7.45
2022-09-14T14:11:05.154Z,6.50
2022-09-14T14:13:35.456Z,5.43
2022-09-14T14:16:18.168Z,7.22
2022-09-14T14:18:53.262Z,5.82
2022-09-14T14:21:30.050Z,9.00
2022-09-14T14:24:28.418Z,9.27
2022-09-14T14:26:57.879Z,11.68
2022-09-14T14:29:26.808Z,5.60
2022-09-14T14:31:56.823Z,8.13
2022-09-14T14:34:28.794Z,7.10
2022-09-14T14:36:57.589Z,6.85
2022-09-14T14:39:26.482Z,8.55
2022-09-14T14:41:54.527Z,33.55
2022-09-14T14:44:24.212Z,19.65
2022-09-14T14:46:52.251Z,9.60
2022-09-14T14:49:20.889Z,14.20
2022-09-14T14:51:49.955Z,9.65
2022-09-14T14:54:18.725Z,11.30
2022-09-14T14:56:47.843Z,7.55
2022-09-14T14:59:28.518Z,6.65
2022-09-14T15:01:57.100Z,8.20
2022-09-14T15:04:25.316Z,5.88
2022-09-14T15:06:54.496Z,7.30
2022-09-14T15:09:25.432Z,7.05
2022-09-14T15:11:54.626Z,5.70
2022-09-14T15:14:26.969Z,6.55
2022-09-14T15:16:59.740Z,7.57
2022-09-14T15:19:28.105Z,6.80
2022-09-14T15:22:00.963Z,6.18
2022-09-14T15:24:29.941Z,5.70
2022-09-14T15:26:57.827Z,5.63
2022-09-14T15:29:25.662Z,6.03
2022-09-14T15:31:53.409Z,7.63
2022-09-14T15:34:21.300Z,7.95
2022-09-14T15:36:51.239Z,6.80
2022-09-14T15:39:21.954Z,4.00
2022-09-14T15:41:49.993Z,6.35
2022-09-14T15:44:18.014Z,4.25
2022-09-14T15:46:46.860Z,5.95
2022-09-14T15:49:17.774Z,4.88
2022-09-14T15:51:47.750Z,5.10
2022-09-14T15:54:16.002Z,6.85
2022-09-14T15:56:49.676Z,6.75
2022-09-14T15:59:21.988Z,4.75
2022-09-14T16:01:49.977Z,5.78
2022-09-14T16:04:18.040Z,5.10
2022-09-14T16:06:46.130Z,5.82
2022-09-14T16:09:15.917Z,4.10
2022-09-14T16:11:45.318Z,5.20
2022-09-14T16:14:12.999Z,7.28
2022-09-14T16:16:41.409Z,7.28
2022-09-14T16:19:11.501Z,7.65
2022-09-14T16:21:39.782Z,6.65
2022-09-14T16:24:11.301Z,9.70
2022-09-14T16:26:39.705Z,6.57
2022-09-14T16:29:11.616Z,7.72
2022-09-14T16:31:41.506Z,9.68
2022-09-14T16:34:12.541Z,8.80
2022-09-14T16:36:41.395Z,8.70
2022-09-14T16:39:12.146Z,9.98
2022-09-14T16:41:41.746Z,8.00
2022-09-14T16:44:13.924Z,9.48
2022-09-14T16:46:41.722Z,20.77
2022-09-14T16:49:09.529Z,12.00
2022-09-14T16:51:37.756Z,10.93
2022-09-14T16:54:05.762Z,14.38
2022-09-14T16:56:35.595Z,12.70
2022-09-14T16:59:04.356Z,13.40
2022-09-14T17:01:35.138Z,11.30
2022-09-14T17:04:08.186Z,11.07
2022-09-14T17:06:37.775Z,9.68
2022-09-14T17:09:08.928Z,8.60
2022-09-14T17:11:38.004Z,10.45
2022-09-14T17:14:06.685Z,8.68
2022-09-14T17:16:35.993Z,8.40
2022-09-14T17:19:05.660Z,11.45
2022-09-14T17:21:35.281Z,9.82
2022-09-14T17:24:04.373Z,9.07
2022-09-14T17:26:32.889Z,8.73
2022-09-14T17:29:01.933Z,10.93
2022-09-14T17:31:31.909Z,7.47
2022-09-14T17:34:02.618Z,8.57
2022-09-14T17:36:31.098Z,7.53
2022-09-14T17:39:01.869Z,8.10
2022-09-14T17:41:31.641Z,11.48
2022-09-14T17:44:02.147Z,7.45
2022-09-14T17:46:30.662Z,10.18
2022-09-14T17:49:00.452Z,8.63
2022-09-14T17:51:30.803Z,9.48
2022-09-14T17:53:59.833Z,9.35
2022-09-14T17:56:29.182Z,9.48
2022-09-14T17:59:02.969Z,9.57
2022-09-14T18:01:31.939Z,11.68
2022-09-14T18:04:02.930Z,11.40
2022-09-14T18:06:35.614Z,14.05
2022-09-14T18:09:05.931Z,12.48
2022-09-14T18:11:34.466Z,8.75
2022-09-14T18:14:03.643Z,7.68
2022-09-14T18:16:31.807Z,8.77
2022-09-14T18:18:59.890Z,9.95
2022-09-14T18:21:28.138Z,10.82
2022-09-14T18:23:57.280Z,8.32
2022-09-14T18:26:26.241Z,11.63
2022-09-14T18:28:55.977Z,13.55
2022-09-14T18:31:24.325Z,11.43
2022-09-14T18:33:53.676Z,10.57
2022-09-14T18:36:22.250Z,12.18
2022-09-14T18:38:51.476Z,16.17
2022-09-14T18:41:21.604Z,10.23
2022-09-14T18:43:51.377Z,9.50
2022-09-14T18:46:22.398Z,8.65
2022-09-14T18:48:52.886Z,11.43
2022-09-14T18:51:20.783Z,9.98
2022-09-14T18:53:48.670Z,13.40
2022-09-14T18:56:17.953Z,11.60
2022-09-14T18:58:48.810Z,12.60
2022-09-14T19:01:16.585Z,10.45
2022-09-14T19:03:45.076Z,10.80
2022-09-14T19:06:15.264Z,9.60
2022-09-14T19:08:43.534Z,11.73
2022-09-14T19:11:13.106Z,10.52
2022-09-14T19:13:41.302Z,9.20
2022-09-14T19:16:12.387Z,14.65
2022-09-14T19:18:40.542Z,10.82
2022-09-14T19:21:14.342Z,9.57
2022-09-14T19:23:42.958Z,19.08
2022-09-14T19:26:15.059Z,16.83
2022-09-14T19:28:43.312Z,14.80
2022-09-14T19:31:22.849Z,12.07
2022-09-14T19:33:51.196Z,17.85
2022-09-14T19:36:20.930Z,18.98
2022-09-14T19:38:49.739Z,15.13
2022-09-14T19:41:17.994Z,17.50
2022-09-14T19:43:46.227Z,16.63
2022-09-14T19:46:17.181Z,14.25
2022-09-14T19:48:45.657Z,14.07
2022-09-14T19:51:15.423Z,23.00
2022-09-14T19:53:44.090Z,11.57
2022-09-14T19:56:14.063Z,15.73
2022-09-14T19:58:43.807Z,21.42
2022-09-14T20:01:12.265Z,22.38
2022-09-14T20:03:41.640Z,20.42
2022-09-14T20:06:11.352Z,16.90
2022-09-14T20:08:39.472Z,12.75
2022-09-14T20:11:08.394Z,14.95
2022-09-14T20:13:36.665Z,18.85
2022-09-14T20:16:12.523Z,15.63
2022-09-14T20:18:42.414Z,20.10
2022-09-14T20:21:11.806Z,16.50
2022-09-14T20:24:11.366Z,17.98
2022-09-14T20:26:35.550Z,17.15
2022-09-14T20:29:03.491Z,14.52
2022-09-14T20:31:32.245Z,16.45
2022-09-14T20:34:01.974Z,22.25
2022-09-14T20:36:31.115Z,18.77
2022-09-14T20:39:00.206Z,22.92
2022-09-14T20:41:30.187Z,18.65
2022-09-14T20:43:58.238Z,21.95
2022-09-14T20:46:27.714Z,15.80
2022-09-14T20:48:55.948Z,11.38
2022-09-14T20:51:26.558Z,12.27
2022-09-14T20:53:56.105Z,14.10
2022-09-14T20:56:26.262Z,16.42
2022-09-14T20:58:55.615Z,20.05
2022-09-14T21:01:25.498Z,21.25
2022-09-14T21:03:53.541Z,21.40
2022-09-14T21:06:26.347Z,13.85
2022-09-14T21:08:54.221Z,12.90
2022-09-14T21:11:23.916Z,10.98
2022-09-14T21:13:53.102Z,20.25
2022-09-14T21:16:24.598Z,11.32
2022-09-14T21:18:55.427Z,12.00
2022-09-14T21:21:23.591Z,17.92
2022-09-14T21:23:54.061Z,17.73
2022-09-14T21:26:21.734Z,15.23
2022-09-14T21:28:49.532Z,28.33
2022-09-14T21:31:19.287Z,11.45
2022-09-14T21:33:48.975Z,15.02
2022-09-14T21:36:18.718Z,12.55
2022-09-14T21:38:50.522Z,12.57
2022-09-14T21:41:21.084Z,15.27
2022-09-14T21:43:49.048Z,23.70
2022-09-14T21:46:17.469Z,30.77
2022-09-14T21:48:45.672Z,29.38
2022-09-14T21:51:18.070Z,23.67
2022-09-14T21:56:14.636Z,32.90
2022-09-14T21:58:44.116Z,17.58
2022-09-14T22:01:12.194Z,18.83
2022-09-14T22:03:40.330Z,27.70
2022-09-14T22:06:11.138Z,17.83
2022-09-14T22:08:38.890Z,15.85
2022-09-14T22:11:07.895Z,24.55
2022-09-14T22:13:35.654Z,30.08
2022-09-14T22:16:09.028Z,33.53
2022-09-14T22:18:37.808Z,41.95
2022-09-14T22:21:06.276Z,36.33
2022-09-14T22:23:35.002Z,36.10
2022-09-14T22:26:07.238Z,19.35
2022-09-14T22:28:35.019Z,16.52
2022-09-14T22:31:03.054Z,39.78
2022-09-14T22:33:32.216Z,47.38
2022-09-14T22:36:02.039Z,28.10
2022-09-14T22:38:32.860Z,19.15
2022-09-14T22:41:02.366Z,15.77
2022-09-14T22:43:30.770Z,16.17
2022-09-14T22:45:59.150Z,18.30
2022-09-14T22:48:27.458Z,28.23
2022-09-14T22:50:58.072Z,37.15
2022-09-14T22:53:26.919Z,22.52
2022-09-14T22:55:55.004Z,46.58
2022-09-14T22:58:25.101Z,36.70
2022-09-14T23:00:53.492Z,21.70
2022-09-14T23:03:21.571Z,51.70
2022-09-14T23:05:50.833Z,22.65
2022-09-14T23:08:20.579Z,20.70
2022-09-14T23:10:48.800Z,50.63
2022-09-14T23:13:17.127Z,51.35
2022-09-14T23:15:44.958Z,31.20
2022-09-14T23:18:13.460Z,23.52
2022-09-14T23:20:42.887Z,25.75
2022-09-14T23:23:10.985Z,44.00
2022-09-14T23:25:41.618Z,28.38
2022-09-14T23:28:12.588Z,52.40
2022-09-14T23:30:40.491Z,43.28
2022-09-14T23:33:08.201Z,31.13
2022-09-14T23:35:37.897Z,63.15
2022-09-14T23:38:05.727Z,59.63
2022-09-14T23:40:33.473Z,37.08
2022-09-14T23:43:02.587Z,56.45
2022-09-14T23:45:30.232Z,38.75
2022-09-14T23:47:57.982Z,45.13
2022-09-14T23:50:25.734Z,52.42
2022-09-14T23:52:57.314Z,46.88
2022-09-14T23:55:25.093Z,50.53
2022-09-14T23:57:52.779Z,68.43
